createdAt,value
2023-05-24T00:02:10.448Z,95090.63
2023-05-24T00:04:37.208Z,95090.56
2023-05-24T00:07:04.085Z,95085.13
2023-05-24T00:09:30.965Z,95079.81
2023-05-24T00:11:57.732Z,95078.78
2023-05-24T00:14:25.253Z,95093.47
2023-05-24T00:16:52.013Z,95085.94
2023-05-24T00:19:18.929Z,95090.59
2023-05-24T00:21:46.330Z,95094.75
2023-05-24T00:24:13.375Z,95085.72
2023-05-24T00:26:40.155Z,95083.50
2023-05-24T00:29:07.063Z,95107.88
2023-05-24T00:31:33.876Z,95088.00
2023-05-24T00:34:00.585Z,95086.56
2023-05-24T00:36:27.490Z,95097.25
2023-05-24T00:38:54.182Z,95081.09
2023-05-24T00:41:20.999Z,95081.47
2023-05-24T00:43:47.891Z,95079.34
2023-05-24T00:46:34.996Z,95082.84
2023-05-24T00:49:02.175Z,95070.75
2023-05-24T00:51:29.288Z,95076.84
2023-05-24T00:53:56.551Z,95077.31
2023-05-24T00:56:24.013Z,95073.81
2023-05-24T00:58:51.883Z,95072.84
2023-05-24T01:01:18.660Z,95067.53
2023-05-24T01:03:45.427Z,95073.44
2023-05-24T01:06:13.786Z,95077.09
2023-05-24T01:08:40.606Z,95068.47
2023-05-24T01:11:21.446Z,95067.28
2023-05-24T01:14:06.606Z,95074.63
2023-05-24T01:16:55.277Z,95077.28
2023-05-24T01:20:02.864Z,95075.84
2023-05-24T01:22:55.940Z,95077.31
2023-05-24T01:25:53.093Z,95083.91
2023-05-24T01:28:26.512Z,95091.97
2023-05-24T01:30:55.738Z,95084.41
2023-05-24T01:33:22.675Z,95083.34
2023-05-24T01:35:49.374Z,95087.31
2023-05-24T01:38:16.084Z,95080.75
2023-05-24T01:40:44.244Z,95078.91
2023-05-24T01:43:33.355Z,95083.69
2023-05-24T01:46:12.235Z,95091.16
2023-05-24T01:48:58.098Z,95088.25
2023-05-24T01:51:36.268Z,95107.75
2023-05-24T01:54:06.415Z,95090.53
2023-05-24T01:56:34.532Z,95101.91
2023-05-24T01:59:02.947Z,95098.56
2023-05-24T02:01:31.319Z,95103.66
2023-05-24T02:03:59.671Z,95092.38
2023-05-24T02:06:26.335Z,95107.19
2023-05-24T02:08:53.019Z,95107.41
2023-05-24T02:11:19.757Z,95115.66
2023-05-24T02:13:46.556Z,95105.25
2023-05-24T02:16:13.333Z,95108.97
2023-05-24T02:18:39.971Z,95101.75
2023-05-24T02:21:06.626Z,95102.13
2023-05-24T02:23:33.384Z,95103.28
2023-05-24T02:26:00.160Z,95095.22
2023-05-24T02:28:26.858Z,95100.84
2023-05-24T02:30:53.698Z,95102.78
2023-05-24T02:33:20.441Z,95093.59
2023-05-24T02:35:47.143Z,95094.56
2023-05-24T02:38:13.859Z,95106.63
2023-05-24T02:40:40.726Z,95083.09
2023-05-24T02:43:07.793Z,95081.50
2023-05-24T02:45:34.493Z,95085.44
2023-05-24T02:48:01.196Z,95098.19
2023-05-24T02:50:27.883Z,95085.69
2023-05-24T02:52:54.730Z,95099.31
2023-05-24T02:55:21.386Z,95091.75
2023-05-24T02:57:48.218Z,95091.13
2023-05-24T03:00:15.950Z,95082.69
2023-05-24T03:02:42.694Z,95087.50
2023-05-24T03:05:09.942Z,95093.63
2023-05-24T03:07:36.675Z,95094.09
2023-05-24T03:10:03.586Z,95100.69
2023-05-24T03:12:30.320Z,95098.28
2023-05-24T03:14:57.008Z,95108.34
2023-05-24T03:17:23.735Z,95101.34
2023-05-24T03:19:50.428Z,95106.75
2023-05-24T03:22:17.145Z,95109.94
2023-05-24T03:24:43.811Z,95107.13
2023-05-24T03:27:10.504Z,95093.19
2023-05-24T03:29:37.183Z,95107.44
2023-05-24T03:32:04.460Z,95101.63
2023-05-24T03:34:33.700Z,95110.03
2023-05-24T03:37:00.391Z,95105.34
2023-05-24T03:39:27.072Z,95109.53
2023-05-24T03:41:53.836Z,95110.84
2023-05-24T03:44:20.586Z,95100.25
2023-05-24T03:46:47.260Z,95112.06
2023-05-24T03:49:16.655Z,95106.41
2023-05-24T03:51:43.391Z,95112.31
2023-05-24T03:54:10.075Z,95114.94
2023-05-24T03:56:37.192Z,95110.94
2023-05-24T03:59:03.956Z,95120.22
2023-05-24T04:01:34.298Z,95129.59
2023-05-24T04:04:01.859Z,95116.56
2023-05-24T04:06:29.651Z,95121.88
2023-05-24T04:08:59.928Z,95120.69
2023-05-24T04:11:26.773Z,95111.97
2023-05-24T04:13:54.167Z,95118.13
2023-05-24T04:16:20.855Z,95110.69
2023-05-24T04:18:47.684Z,95123.94
2023-05-24T04:21:14.442Z,95108.94
2023-05-24T04:23:41.094Z,95111.34
2023-05-24T04:26:07.824Z,95122.75
2023-05-24T04:28:34.491Z,95123.13
2023-05-24T04:31:01.150Z,95126.81
2023-05-24T04:33:27.878Z,95126.63
2023-05-24T04:35:54.612Z,95117.34
2023-05-24T04:38:22.086Z,95116.09
2023-05-24T04:40:48.780Z,95110.47
2023-05-24T04:43:15.500Z,95113.56
2023-05-24T04:45:42.183Z,95109.38
2023-05-24T04:48:08.891Z,95110.03
2023-05-24T04:50:35.540Z,95103.91
2023-05-24T04:53:02.269Z,95105.78
2023-05-24T04:55:28.989Z,95109.41
2023-05-24T04:57:55.640Z,95111.31
2023-05-24T05:00:22.402Z,95116.75
2023-05-24T05:02:49.382Z,95119.13
2023-05-24T05:05:16.339Z,95125.22
2023-05-24T05:07:43.060Z,95126.06
2023-05-24T05:10:09.841Z,95124.41
2023-05-24T05:12:36.502Z,95121.13
2023-05-24T05:15:03.341Z,95125.47
2023-05-24T05:17:30.025Z,95120.47
2023-05-24T05:19:56.919Z,95122.53
2023-05-24T05:22:23.646Z,95123.44
2023-05-24T05:24:51.883Z,95128.78
2023-05-24T05:27:19.040Z,95131.50
2023-05-24T05:29:45.743Z,95128.72
2023-05-24T05:32:12.606Z,95128.22
2023-05-24T05:34:39.373Z,95133.16
2023-05-24T05:37:06.058Z,95129.13
2023-05-24T05:39:32.776Z,95138.94
2023-05-24T05:41:59.503Z,95133.16
2023-05-24T05:44:26.340Z,95133.94
2023-05-24T05:46:53.109Z,95126.66
2023-05-24T05:49:21.065Z,95127.63
2023-05-24T05:51:47.782Z,95141.47
2023-05-24T05:54:14.574Z,95135.94
2023-05-24T05:56:42.938Z,95129.72
2023-05-24T05:59:09.711Z,95126.78
2023-05-24T06:01:36.414Z,95130.13
2023-05-24T06:04:03.478Z,95125.09
2023-05-24T06:06:30.285Z,95128.22
2023-05-24T06:08:57.042Z,95130.41
2023-05-24T06:11:23.818Z,95127.09
2023-05-24T06:13:50.620Z,95127.50
2023-05-24T06:16:20.331Z,95122.56
2023-05-24T06:19:01.453Z,95129.97
2023-05-24T06:21:32.464Z,95125.06
2023-05-24T06:23:59.626Z,95123.47
2023-05-24T06:26:26.290Z,95124.66
2023-05-24T06:28:52.932Z,95132.53
2023-05-24T06:31:19.785Z,95128.72
2023-05-24T06:33:52.524Z,95129.97
2023-05-24T06:36:29.114Z,95129.84
2023-05-24T06:38:55.822Z,95124.16
2023-05-24T06:41:23.507Z,95126.16
2023-05-24T06:43:50.194Z,95127.25
2023-05-24T06:46:16.896Z,95133.78
2023-05-24T06:48:43.701Z,95133.81
2023-05-24T06:51:10.559Z,95132.44
2023-05-24T06:53:37.258Z,95136.34
2023-05-24T06:56:04.023Z,95136.34
2023-05-24T06:58:32.955Z,95136.16
2023-05-24T07:00:59.644Z,95136.94
2023-05-24T07:03:26.343Z,95136.44
2023-05-24T07:05:53.071Z,95136.22
2023-05-24T07:08:22.102Z,95137.22
2023-05-24T07:10:48.812Z,95142.91
2023-05-24T07:13:15.709Z,95136.81
2023-05-24T07:15:42.654Z,95136.53
2023-05-24T07:18:09.431Z,95136.41
2023-05-24T07:20:36.227Z,95133.69
2023-05-24T07:23:03.936Z,95143.34
2023-05-24T07:25:30.923Z,95142.06
2023-05-24T07:27:57.743Z,95137.53
2023-05-24T07:32:59.502Z,95142.31
2023-05-24T07:35:26.385Z,95135.47
2023-05-24T07:37:53.126Z,95143.47
2023-05-24T07:40:19.810Z,95138.69
2023-05-24T07:42:46.535Z,95134.88
2023-05-24T07:45:15.564Z,95128.75
2023-05-24T07:47:42.265Z,95146.00
2023-05-24T07:50:09.572Z,95152.16
2023-05-24T07:52:36.378Z,95131.47
2023-05-24T07:55:03.066Z,95130.94
2023-05-24T07:57:29.774Z,95139.56
2023-05-24T07:59:56.624Z,95134.13
2023-05-24T08:02:23.442Z,95142.56
2023-05-24T08:04:50.196Z,95149.13
2023-05-24T08:07:16.892Z,95143.88
2023-05-24T08:09:43.806Z,95143.59
2023-05-24T08:12:10.447Z,95144.47
2023-05-24T08:14:37.216Z,95144.09
2023-05-24T08:17:04.101Z,95141.88
2023-05-24T08:19:30.806Z,95150.44
2023-05-24T08:21:57.599Z,95143.81
2023-05-24T08:24:24.280Z,95148.41
2023-05-24T08:26:50.954Z,95155.00
2023-05-24T08:29:17.879Z,95163.41
2023-05-24T08:31:44.771Z,95157.81
2023-05-24T08:34:11.978Z,95161.28
2023-05-24T08:36:38.636Z,95158.28
2023-05-24T08:39:05.370Z,95160.16
2023-05-24T08:41:33.056Z,95155.91
2023-05-24T08:44:05.364Z,95162.59
2023-05-24T08:46:36.045Z,95155.13
2023-05-24T08:49:05.817Z,95161.00
2023-05-24T08:51:33.600Z,95170.34
2023-05-24T08:54:00.791Z,95169.84
2023-05-24T08:56:28.314Z,95171.19
2023-05-24T08:58:55.767Z,95179.47
2023-05-24T09:01:25.863Z,95175.69
2023-05-24T09:03:55.209Z,95176.97
2023-05-24T09:06:23.811Z,95178.63
2023-05-24T09:08:51.155Z,95179.72
2023-05-24T09:11:18.942Z,95182.13
2023-05-24T09:13:45.814Z,95186.63
2023-05-24T09:16:12.679Z,95179.69
2023-05-24T09:18:41.070Z,95188.53
2023-05-24T09:21:07.728Z,95193.66
2023-05-24T09:23:35.814Z,95186.38
2023-05-24T09:26:08.234Z,95189.91
2023-05-24T09:28:35.829Z,95190.09
2023-05-24T09:31:07.130Z,95183.69
2023-05-24T09:33:35.367Z,95180.31
2023-05-24T09:36:05.370Z,95178.94
2023-05-24T09:38:32.493Z,95180.66
2023-05-24T09:41:07.312Z,95189.59
2023-05-24T09:43:48.475Z,95183.44
2023-05-24T09:46:19.604Z,95191.38
2023-05-24T09:49:12.929Z,95187.00
2023-05-24T09:51:39.740Z,95189.47
2023-05-24T09:54:06.738Z,95187.47
2023-05-24T09:56:34.114Z,95192.03
2023-05-24T09:59:08.981Z,95186.09
2023-05-24T10:01:35.860Z,95179.56
2023-05-24T10:04:03.831Z,95187.63
2023-05-24T10:06:35.267Z,95184.66
2023-05-24T10:09:03.197Z,95194.56
2023-05-24T10:11:30.335Z,95189.75
2023-05-24T10:13:58.532Z,95177.72
2023-05-24T10:16:25.761Z,95185.00
2023-05-24T10:18:52.937Z,95181.25
2023-05-24T10:21:29.036Z,95178.59
2023-05-24T10:24:00.094Z,95179.03
2023-05-24T10:26:31.753Z,95175.38
2023-05-24T10:29:06.951Z,95174.84
2023-05-24T10:31:40.106Z,95175.59
2023-05-24T10:34:09.370Z,95172.50
2023-05-24T10:36:38.442Z,95181.31
2023-05-24T10:39:08.945Z,95177.00
2023-05-24T10:41:42.479Z,95183.50
2023-05-24T10:44:14.228Z,95176.34
2023-05-24T10:47:06.790Z,95175.06
2023-05-24T10:49:33.459Z,95175.13
2023-05-24T10:52:10.471Z,95176.69
2023-05-24T10:54:37.309Z,95177.44
2023-05-24T10:57:06.344Z,95182.69
2023-05-24T10:59:38.514Z,95177.59
2023-05-24T11:02:08.203Z,95180.16
2023-05-24T11:05:05.375Z,95179.91
2023-05-24T11:07:32.152Z,95177.16
2023-05-24T11:10:04.202Z,95181.66
2023-05-24T11:12:32.174Z,95173.28
2023-05-24T11:14:58.930Z,95175.19
2023-05-24T11:17:25.700Z,95158.22
2023-05-24T11:19:55.107Z,95165.84
2023-05-24T11:22:24.180Z,95161.63
2023-05-24T11:24:53.043Z,95166.66
2023-05-24T11:27:19.774Z,95177.56
2023-05-24T11:29:48.044Z,95176.19
2023-05-24T11:32:20.628Z,95178.13
2023-05-24T11:34:48.762Z,95180.78
2023-05-24T11:37:18.003Z,95169.03
2023-05-24T11:39:52.998Z,95156.44
2023-05-24T11:42:21.745Z,95149.47
2023-05-24T11:44:53.333Z,95149.44
2023-05-24T11:47:21.015Z,95137.34
2023-05-24T11:49:51.802Z,95134.63
2023-05-24T11:52:18.479Z,95122.09
2023-05-24T11:54:45.167Z,95129.00
2023-05-24T11:57:12.733Z,95140.25
2023-05-24T11:59:41.678Z,95126.50
2023-05-24T12:02:08.400Z,95130.34
2023-05-24T12:04:35.397Z,95124.22
2023-05-24T12:07:02.779Z,95128.50
2023-05-24T12:09:29.535Z,95123.19
2023-05-24T12:11:56.265Z,95130.63
2023-05-24T12:14:25.254Z,95121.50
2023-05-24T12:16:54.913Z,95121.81
2023-05-24T12:21:56.635Z,95111.69
2023-05-24T12:24:25.298Z,95115.69
2023-05-24T12:26:54.517Z,95109.56
2023-05-24T12:29:21.210Z,95105.66
2023-05-24T12:31:49.357Z,95111.50
2023-05-24T12:34:18.356Z,95113.63
2023-05-24T12:36:45.798Z,95116.00
2023-05-24T12:39:23.544Z,95122.28
2023-05-24T12:41:54.663Z,95127.91
2023-05-24T12:44:28.688Z,95119.56
2023-05-24T12:46:57.243Z,95124.50
2023-05-24T12:49:25.627Z,95134.19
2023-05-24T12:51:54.589Z,95130.31
2023-05-24T12:54:26.617Z,95135.31
2023-05-24T12:56:56.771Z,95128.91
2023-05-24T12:59:25.486Z,95127.56
2023-05-24T13:01:52.379Z,95119.81
2023-05-24T13:04:21.464Z,95124.34
2023-05-24T13:06:48.562Z,95128.94
2023-05-24T13:09:15.634Z,95126.00
2023-05-24T13:11:43.397Z,95137.72
2023-05-24T13:14:10.152Z,95126.94
2023-05-24T13:16:36.895Z,95104.97
2023-05-24T13:19:03.619Z,95113.47
2023-05-24T13:21:30.308Z,95116.47
2023-05-24T13:23:56.993Z,95108.66
2023-05-24T13:26:23.710Z,95110.81
2023-05-24T13:29:21.753Z,95113.19
2023-05-24T13:31:38.287Z,95111.69
2023-05-24T13:34:05.980Z,95116.59
2023-05-24T13:36:33.295Z,95120.38
2023-05-24T13:39:14.118Z,95116.63
2023-05-24T13:41:42.159Z,95138.00
2023-05-24T13:44:09.555Z,95134.25
2023-05-24T13:46:36.512Z,95128.09
2023-05-24T13:49:03.715Z,95130.25
2023-05-24T13:51:30.395Z,95129.97
2023-05-24T13:53:57.106Z,95128.84
2023-05-24T13:56:23.843Z,95131.25
2023-05-24T13:58:51.314Z,95136.84
2023-05-24T14:01:18.124Z,95129.63
2023-05-24T14:03:44.852Z,95117.28
2023-05-24T14:06:11.680Z,95135.81
2023-05-24T14:08:38.557Z,95115.16
2023-05-24T14:11:05.278Z,95114.41
2023-05-24T14:14:32.841Z,95126.44
2023-05-24T14:16:18.850Z,95125.47
2023-05-24T14:18:45.639Z,95128.41
2023-05-24T14:21:12.465Z,95115.31
2023-05-24T14:23:39.180Z,95120.06
2023-05-24T14:26:05.893Z,95117.50
2023-05-24T14:28:32.582Z,95116.22
2023-05-24T14:30:59.244Z,95093.28
2023-05-24T14:33:25.992Z,95080.59
2023-05-24T14:35:52.686Z,95112.63
2023-05-24T14:38:19.387Z,95103.97
2023-05-24T14:40:48.515Z,95094.75
2023-05-24T14:43:15.307Z,95088.66
2023-05-24T14:45:44.596Z,95096.63
2023-05-24T14:48:12.524Z,95084.34
2023-05-24T14:50:40.618Z,95091.88
2023-05-24T14:53:08.938Z,95085.81
2023-05-24T14:55:36.406Z,95088.25
2023-05-24T14:58:03.524Z,95081.81
2023-05-24T15:00:32.449Z,95089.28
2023-05-24T15:02:59.146Z,95085.31
2023-05-24T15:05:25.978Z,95092.53
2023-05-24T15:07:52.633Z,95090.66
2023-05-24T15:10:19.409Z,95089.84
2023-05-24T15:12:46.207Z,95102.84
2023-05-24T15:15:12.880Z,95109.44
2023-05-24T15:17:39.661Z,95085.88
2023-05-24T15:20:06.947Z,95081.66
2023-05-24T15:22:33.725Z,95092.31
2023-05-24T15:25:00.445Z,95089.69
2023-05-24T15:27:30.331Z,95083.84
2023-05-24T15:29:57.043Z,95073.78
2023-05-24T15:32:23.727Z,95092.72
2023-05-24T15:34:50.464Z,95076.31
2023-05-24T15:37:17.184Z,95092.66
2023-05-24T15:39:43.876Z,95087.41
2023-05-24T15:42:14.787Z,95069.41
2023-05-24T15:44:45.935Z,95091.84
2023-05-24T15:47:12.723Z,95089.66
2023-05-24T15:49:39.415Z,95086.22
2023-05-24T15:52:06.855Z,95076.34
2023-05-24T15:54:33.889Z,95073.25
2023-05-24T15:57:00.624Z,95088.34
2023-05-24T15:59:28.096Z,95084.56
2023-05-24T16:01:54.853Z,95076.31
2023-05-24T16:04:21.707Z,95083.81
2023-05-24T16:06:48.541Z,95072.66
2023-05-24T16:09:15.200Z,95106.72
2023-05-24T16:11:41.911Z,95096.84
2023-05-24T16:14:08.625Z,95084.31
2023-05-24T16:16:35.311Z,95068.72
2023-05-24T16:19:02.120Z,95068.88
2023-05-24T16:21:28.871Z,95081.63
2023-05-24T16:23:59.453Z,95086.03
2023-05-24T16:26:28.363Z,95062.09
2023-05-24T16:28:55.035Z,95074.81
2023-05-24T16:31:23.630Z,95125.53
2023-05-24T16:33:50.382Z,95081.09
2023-05-24T16:36:18.819Z,95068.94
2023-05-24T16:38:47.778Z,95072.53
2023-05-24T16:41:14.487Z,95071.03
2023-05-24T16:43:41.204Z,95064.50
2023-05-24T16:46:08.074Z,95065.19
2023-05-24T16:48:34.875Z,95075.72
2023-05-24T16:51:01.594Z,95064.09
2023-05-24T16:53:28.327Z,95066.75
2023-05-24T16:55:57.316Z,95056.41
2023-05-24T16:58:26.070Z,95055.97
2023-05-24T17:00:52.853Z,95064.19
2023-05-24T17:03:19.868Z,95053.97
2023-05-24T17:05:46.560Z,95041.38
2023-05-24T17:08:13.329Z,95050.66
2023-05-24T17:10:40.168Z,95050.53
2023-05-24T17:13:06.930Z,95045.41
2023-05-24T17:15:33.679Z,95054.56
2023-05-24T17:18:00.411Z,95049.59
2023-05-24T17:20:27.196Z,95061.13
2023-05-24T17:22:54.007Z,95056.88
2023-05-24T17:25:23.963Z,95055.59
2023-05-24T17:27:50.712Z,95070.00
2023-05-24T17:30:17.480Z,95076.69
2023-05-24T17:32:44.291Z,95083.97
2023-05-24T17:35:11.091Z,95078.50
2023-05-24T17:37:37.962Z,95070.22
2023-05-24T17:40:05.025Z,95073.03
2023-05-24T17:42:31.746Z,95076.38
2023-05-24T17:44:58.509Z,95082.50
2023-05-24T17:47:25.229Z,95089.16
2023-05-24T17:49:51.948Z,95088.13
2023-05-24T17:52:18.682Z,95085.16
2023-05-24T17:54:45.473Z,95085.72
2023-05-24T17:57:12.172Z,95096.19
2023-05-24T17:59:39.167Z,95088.13
2023-05-24T18:02:06.174Z,95101.56
2023-05-24T18:04:32.850Z,95103.66
2023-05-24T18:06:59.531Z,95096.31
2023-05-24T18:09:26.227Z,95110.22
2023-05-24T18:11:52.910Z,95094.88
2023-05-24T18:14:19.975Z,95131.59
2023-05-24T18:16:46.808Z,95119.53
2023-05-24T18:19:13.508Z,95110.00
2023-05-24T18:21:40.727Z,95108.63
2023-05-24T18:24:07.431Z,95118.47
2023-05-24T18:26:34.074Z,95101.59
2023-05-24T18:29:00.706Z,95109.34
2023-05-24T18:31:27.702Z,95102.22
2023-05-24T18:33:54.494Z,95108.28
2023-05-24T18:36:21.284Z,95100.47
2023-05-24T18:38:48.003Z,95092.69
2023-05-24T18:41:14.692Z,95112.69
2023-05-24T18:43:41.412Z,95095.91
2023-05-24T18:46:08.531Z,95119.22
2023-05-24T18:48:35.853Z,95114.22
2023-05-24T18:51:02.873Z,95103.59
2023-05-24T18:53:29.641Z,95101.25
2023-05-24T18:55:56.317Z,95110.91
2023-05-24T18:58:23.097Z,95102.00
2023-05-24T19:00:49.917Z,95104.72
2023-05-24T19:03:17.015Z,95111.16
2023-05-24T19:05:46.795Z,95111.78
2023-05-24T19:08:13.703Z,95104.66
2023-05-24T19:10:40.411Z,95116.44
2023-05-24T19:13:07.253Z,95120.25
2023-05-24T19:15:37.141Z,95118.28
2023-05-24T19:18:03.972Z,95111.53
2023-05-24T19:20:30.892Z,95114.50
2023-05-24T19:22:57.693Z,95129.16
2023-05-24T19:25:24.461Z,95107.94
2023-05-24T19:30:20.804Z,95101.66
2023-05-24T19:32:47.533Z,95098.75
2023-05-24T19:35:14.356Z,95119.25
2023-05-24T19:37:41.002Z,95116.56
2023-05-24T19:40:08.154Z,95115.09
2023-05-24T19:42:34.924Z,95107.38
2023-05-24T19:45:01.679Z,95121.56
2023-05-24T19:47:28.437Z,95138.03
2023-05-24T19:49:55.137Z,95113.53
2023-05-24T19:52:21.790Z,95109.16
2023-05-24T19:54:48.526Z,95115.19
2023-05-24T19:57:15.614Z,95114.72
2023-05-24T19:59:42.513Z,95137.78
2023-05-24T20:02:09.224Z,95120.50
2023-05-24T20:04:35.965Z,95122.69
2023-05-24T20:07:02.678Z,95130.56
2023-05-24T20:09:29.337Z,95113.66
2023-05-24T20:11:56.035Z,95103.41
2023-05-24T20:14:22.744Z,95111.34
2023-05-24T20:16:49.482Z,95120.81
2023-05-24T20:19:16.300Z,95120.25
2023-05-24T20:21:42.968Z,95106.66
2023-05-24T20:24:09.675Z,95113.19
2023-05-24T20:26:36.344Z,95140.81
2023-05-24T20:29:03.244Z,95118.47
2023-05-24T20:31:29.966Z,95115.81
2023-05-24T20:33:56.717Z,95134.97
2023-05-24T20:36:23.487Z,95118.59
2023-05-24T20:38:50.274Z,95118.13
2023-05-24T20:41:17.098Z,95133.25
2023-05-24T20:43:43.904Z,95119.53
2023-05-24T20:46:10.719Z,95117.50
2023-05-24T20:48:37.429Z,95118.59
2023-05-24T20:51:04.213Z,95115.28
2023-05-24T20:53:30.908Z,95113.34
2023-05-24T20:55:57.600Z,95169.44
2023-05-24T20:58:24.355Z,95118.66
2023-05-24T21:03:18.077Z,95108.06
2023-05-24T21:05:45.012Z,95107.56
2023-05-24T21:08:12.070Z,95111.75
2023-05-24T21:10:38.774Z,95102.53
2023-05-24T21:13:05.523Z,95111.19
2023-05-24T21:15:32.184Z,95105.66
2023-05-24T21:17:58.930Z,95099.75
2023-05-24T21:20:25.691Z,95101.50
2023-05-24T21:22:52.427Z,95109.47
2023-05-24T21:25:19.390Z,95099.44
2023-05-24T21:27:46.047Z,95120.97
2023-05-24T21:30:13.404Z,95115.22
2023-05-24T21:32:40.147Z,95101.81
2023-05-24T21:35:07.228Z,95105.84
2023-05-24T21:37:33.903Z,95109.00
2023-05-24T21:40:00.676Z,95104.75
2023-05-24T21:42:27.333Z,95107.50
2023-05-24T21:44:54.001Z,95107.25
2023-05-24T21:47:20.686Z,95113.47
2023-05-24T21:49:47.741Z,95129.88
2023-05-24T21:52:14.468Z,95107.50
2023-05-24T21:54:41.117Z,95112.50
2023-05-24T21:57:08.510Z,95097.72
2023-05-24T21:59:35.196Z,95094.16
2023-05-24T22:02:01.959Z,95087.13
2023-05-24T22:04:28.726Z,95099.88
2023-05-24T22:06:55.416Z,95092.31
2023-05-24T22:09:22.265Z,95084.34
2023-05-24T22:11:49.238Z,95098.84
2023-05-24T22:14:15.997Z,95093.56
2023-05-24T22:16:42.832Z,95079.97
2023-05-24T22:19:28.487Z,95083.88
2023-05-24T22:21:59.221Z,95071.09
2023-05-24T22:24:26.763Z,95085.38
2023-05-24T22:26:53.448Z,95080.47
2023-05-24T22:29:20.356Z,95124.88
2023-05-24T22:31:47.091Z,95098.84
2023-05-24T22:34:13.842Z,95063.44
2023-05-24T22:36:40.487Z,95090.81
2023-05-24T22:39:07.159Z,95077.81
2023-05-24T22:41:33.805Z,95078.13
2023-05-24T22:44:00.453Z,95064.94
2023-05-24T22:46:27.231Z,95094.59
2023-05-24T22:48:54.005Z,95069.06
2023-05-24T22:51:20.787Z,95071.81
2023-05-24T22:53:48.670Z,95080.47
2023-05-24T22:56:16.006Z,95085.97
2023-05-24T22:58:43.954Z,95081.72
2023-05-24T23:01:10.651Z,95061.81
2023-05-24T23:03:37.339Z,95066.38
2023-05-24T23:06:04.544Z,95063.44
2023-05-24T23:08:34.553Z,95073.78
2023-05-24T23:11:01.751Z,95059.50
2023-05-24T23:13:28.447Z,95060.88
2023-05-24T23:15:55.103Z,95072.38
2023-05-24T23:18:21.767Z,95063.16
2023-05-24T23:20:49.039Z,95054.19
2023-05-24T23:23:15.725Z,95066.53
2023-05-24T23:25:42.688Z,95075.81
2023-05-24T23:28:09.502Z,95051.81
2023-05-24T23:30:36.165Z,95074.22
2023-05-24T23:33:02.902Z,95072.94
2023-05-24T23:35:29.777Z,95066.38
2023-05-24T23:37:56.437Z,95070.75
2023-05-24T23:40:23.122Z,95091.44
2023-05-24T23:42:49.777Z,95079.00
2023-05-24T23:45:16.531Z,95082.44
2023-05-24T23:47:43.248Z,95059.81
2023-05-24T23:50:10.379Z,95065.22
2023-05-24T23:52:37.199Z,95049.81
2023-05-24T23:55:04.109Z,95059.22
2023-05-24T23:57:30.791Z,95061.41
2023-05-24T23:59:57.454Z,95061.63
